sensor_id;sensor_type;location;lat;lon;timestamp;pressure;altitude;pressure_sealevel;temperature;humidity
4834;BME280;12895;51.064;7.028;2023-12-22T00:02:35;99436.06;;;4.90;100.00
4834;BME280;12895;51.064;7.028;2023-12-22T00:05:21;99437.91;;;4.84;100.00
4834;BME280;12895;51.064;7.028;2023-12-22T00:08:06;99420.53;;;4.87;100.00
4834;BME280;12895;51.064;7.028;2023-12-22T00:10:52;99427.25;;;4.86;100.00
4834;BME280;12895;51.064;7.028;2023-12-22T00:13:38;99436.97;;;4.87;100.00
4834;BME280;12895;51.064;7.028;2023-12-22T00:16:23;99441.53;;;4.90;100.00
4834;BME280;12895;51.064;7.028;2023-12-22T00:19:09;99422.66;;;4.92;100.00
4834;BME280;12895;51.064;7.028;2023-12-22T00:21:54;99411.69;;;4.92;100.00
4834;BME280;12895;51.064;7.028;2023-12-22T00:24:40;99407.09;;;4.98;100.00
4834;BME280;12895;51.064;7.028;2023-12-22T00:27:25;99427.78;;;4.99;100.00
4834;BME280;12895;51.064;7.028;2023-12-22T00:30:12;99442.63;;;5.07;100.00
4834;BME280;12895;51.064;7.028;2023-12-22T00:32:58;99436.84;;;5.05;99.76
4834;BME280;12895;51.064;7.028;2023-12-22T00:35:43;99458.00;;;5.04;99.63
4834;BME280;12895;51.064;7.028;2023-12-22T00:38:28;99477.28;;;5.10;98.85
4834;BME280;12895;51.064;7.028;2023-12-22T00:41:13;99418.84;;;5.13;97.91
4834;BME280;12895;51.064;7.028;2023-12-22T00:43:59;99433.13;;;5.17;96.95
4834;BME280;12895;51.064;7.028;2023-12-22T00:46:45;99420.06;;;5.12;97.46
4834;BME280;12895;51.064;7.028;2023-12-22T00:49:30;99434.06;;;5.28;96.99
4834;BME280;12895;51.064;7.028;2023-12-22T00:52:15;99417.63;;;5.28;97.04
4834;BME280;12895;51.064;7.028;2023-12-22T00:55:00;99414.34;;;5.38;94.56
4834;BME280;12895;51.064;7.028;2023-12-22T00:57:45;99400.06;;;5.34;97.03
4834;BME280;12895;51.064;7.028;2023-12-22T01:00:31;99441.50;;;5.51;93.57
4834;BME280;12895;51.064;7.028;2023-12-22T01:03:18;99454.63;;;5.61;91.13
4834;BME280;12895;51.064;7.028;2023-12-22T01:06:03;99474.56;;;5.62;92.08
4834;BME280;12895;51.064;7.028;2023-12-22T01:08:48;99479.88;;;5.65;92.42
4834;BME280;12895;51.064;7.028;2023-12-22T01:11:33;99470.88;;;5.50;94.73
4834;BME280;12895;51.064;7.028;2023-12-22T01:14:18;99474.69;;;5.29;97.14
4834;BME280;12895;51.064;7.028;2023-12-22T01:17:03;99482.03;;;5.23;97.89
4834;BME280;12895;51.064;7.028;2023-12-22T01:19:50;99481.88;;;5.27;98.02
4834;BME280;12895;51.064;7.028;2023-12-22T01:22:36;99461.06;;;5.21;99.90
4834;BME280;12895;51.064;7.028;2023-12-22T01:25:22;99466.19;;;5.28;99.27
4834;BME280;12895;51.064;7.028;2023-12-22T01:28:07;99465.25;;;5.30;100.00
4834;BME280;12895;51.064;7.028;2023-12-22T01:30:53;99467.34;;;5.35;98.88
4834;BME280;12895;51.064;7.028;2023-12-22T01:33:38;99458.66;;;5.37;99.01
4834;BME280;12895;51.064;7.028;2023-12-22T01:36:24;99449.19;;;5.38;98.58
4834;BME280;12895;51.064;7.028;2023-12-22T01:39:09;99453.94;;;5.37;100.00
4834;BME280;12895;51.064;7.028;2023-12-22T01:41:54;99467.91;;;5.39;99.81
4834;BME280;12895;51.064;7.028;2023-12-22T01:44:40;99497.13;;;5.42;98.56
4834;BME280;12895;51.064;7.028;2023-12-22T01:47:25;99500.81;;;5.39;100.00
4834;BME280;12895;51.064;7.028;2023-12-22T01:50:10;99455.72;;;5.40;100.00
4834;BME280;12895;51.064;7.028;2023-12-22T01:52:57;99442.03;;;5.40;100.00
4834;BME280;12895;51.064;7.028;2023-12-22T01:55:43;99461.91;;;5.50;98.26
4834;BME280;12895;51.064;7.028;2023-12-22T01:58:28;99464.34;;;5.62;96.25
4834;BME280;12895;51.064;7.028;2023-12-22T02:01:16;99494.91;;;5.70;94.34
4834;BME280;12895;51.064;7.028;2023-12-22T02:04:02;99487.34;;;5.65;95.93
4834;BME280;12895;51.064;7.028;2023-12-22T02:06:47;99482.03;;;5.61;95.67
4834;BME280;12895;51.064;7.028;2023-12-22T02:09:33;99501.22;;;5.61;94.86
4834;BME280;12895;51.064;7.028;2023-12-22T02:12:19;99483.63;;;5.53;96.99
4834;BME280;12895;51.064;7.028;2023-12-22T02:15:04;99496.88;;;5.55;96.75
4834;BME280;12895;51.064;7.028;2023-12-22T02:17:51;99490.44;;;5.58;96.64
4834;BME280;12895;51.064;7.028;2023-12-22T02:20:40;99493.66;;;5.56;97.18
4834;BME280;12895;51.064;7.028;2023-12-22T02:23:29;99503.84;;;5.56;96.73
4834;BME280;12895;51.064;7.028;2023-12-22T02:26:17;99506.13;;;5.57;95.93
4834;BME280;12895;51.064;7.028;2023-12-22T02:29:04;99504.91;;;5.58;96.45
4834;BME280;12895;51.064;7.028;2023-12-22T02:31:50;99499.72;;;5.60;96.13
4834;BME280;12895;51.064;7.028;2023-12-22T02:34:36;99517.66;;;5.61;96.41
4834;BME280;12895;51.064;7.028;2023-12-22T02:37:22;99498.75;;;5.63;96.35
4834;BME280;12895;51.064;7.028;2023-12-22T02:40:10;99500.84;;;5.68;96.70
4834;BME280;12895;51.064;7.028;2023-12-22T02:42:56;99512.19;;;5.61;98.12
4834;BME280;12895;51.064;7.028;2023-12-22T02:45:41;99482.09;;;5.52;99.74
4834;BME280;12895;51.064;7.028;2023-12-22T02:48:26;99505.94;;;5.46;100.00
4834;BME280;12895;51.064;7.028;2023-12-22T02:51:11;99509.50;;;5.52;100.00
4834;BME280;12895;51.064;7.028;2023-12-22T02:53:56;99509.50;;;5.52;100.00
4834;BME280;12895;51.064;7.028;2023-12-22T02:56:45;99525.50;;;5.54;100.00
4834;BME280;12895;51.064;7.028;2023-12-22T02:59:30;99508.78;;;5.52;100.00
4834;BME280;12895;51.064;7.028;2023-12-22T03:02:15;99505.94;;;5.46;100.00
4834;BME280;12895;51.064;7.028;2023-12-22T03:05:00;99507.44;;;5.47;100.00
4834;BME280;12895;51.064;7.028;2023-12-22T03:07:46;99494.78;;;5.50;100.00
4834;BME280;12895;51.064;7.028;2023-12-22T03:10:30;99496.41;;;5.56;100.00
4834;BME280;12895;51.064;7.028;2023-12-22T03:13:17;99493.06;;;5.52;100.00
4834;BME280;12895;51.064;7.028;2023-12-22T03:16:02;99483.25;;;5.60;100.00
4834;BME280;12895;51.064;7.028;2023-12-22T03:18:48;99487.78;;;5.63;100.00
4834;BME280;12895;51.064;7.028;2023-12-22T03:21:33;99499.78;;;5.51;100.00
4834;BME280;12895;51.064;7.028;2023-12-22T03:24:18;99486.06;;;5.51;100.00
4834;BME280;12895;51.064;7.028;2023-12-22T03:27:04;99477.28;;;5.85;100.00
4834;BME280;12895;51.064;7.028;2023-12-22T03:29:51;99476.22;;;5.83;100.00
4834;BME280;12895;51.064;7.028;2023-12-22T03:32:36;99488.47;;;5.73;100.00
4834;BME280;12895;51.064;7.028;2023-12-22T03:35:21;99486.88;;;5.66;100.00
4834;BME280;12895;51.064;7.028;2023-12-22T03:38:06;99491.69;;;5.71;100.00
4834;BME280;12895;51.064;7.028;2023-12-22T03:40:51;99498.44;;;5.99;99.59
4834;BME280;12895;51.064;7.028;2023-12-22T03:43:36;99505.03;;;5.78;100.00
4834;BME280;12895;51.064;7.028;2023-12-22T03:46:23;99497.06;;;5.66;100.00
4834;BME280;12895;51.064;7.028;2023-12-22T03:49:08;99499.91;;;5.71;100.00
4834;BME280;12895;51.064;7.028;2023-12-22T03:51:53;99492.63;;;5.68;100.00
4834;BME280;12895;51.064;7.028;2023-12-22T03:54:38;99506.13;;;5.95;98.10
4834;BME280;12895;51.064;7.028;2023-12-22T03:57:23;99519.31;;;5.82;99.13
4834;BME280;12895;51.064;7.028;2023-12-22T04:00:09;99508.84;;;5.95;98.93
4834;BME280;12895;51.064;7.028;2023-12-22T04:02:55;99495.97;;;6.01;99.39
4834;BME280;12895;51.064;7.028;2023-12-22T04:05:41;99503.75;;;5.88;100.00
4834;BME280;12895;51.064;7.028;2023-12-22T04:08:26;99496.75;;;5.87;100.00
4834;BME280;12895;51.064;7.028;2023-12-22T04:11:11;99499.59;;;6.07;100.00
4834;BME280;12895;51.064;7.028;2023-12-22T04:13:57;99497.25;;;6.49;98.67
4834;BME280;12895;51.064;7.028;2023-12-22T04:16:42;99483.56;;;6.69;96.70
4834;BME280;12895;51.064;7.028;2023-12-22T04:19:29;99482.19;;;6.59;93.62
4834;BME280;12895;51.064;7.028;2023-12-22T04:22:14;99477.47;;;5.96;95.08
4834;BME280;12895;51.064;7.028;2023-12-22T04:24:59;99483.78;;;5.88;96.14
4834;BME280;12895;51.064;7.028;2023-12-22T04:27:44;99472.34;;;5.89;96.52
4834;BME280;12895;51.064;7.028;2023-12-22T04:30:29;99459.69;;;5.92;96.34
4834;BME280;12895;51.064;7.028;2023-12-22T04:33:15;99455.91;;;5.89;96.76
4834;BME280;12895;51.064;7.028;2023-12-22T04:36:01;99445.78;;;5.95;98.01
4834;BME280;12895;51.064;7.028;2023-12-22T04:38:47;99525.78;;;6.08;97.13
4834;BME280;12895;51.064;7.028;2023-12-22T04:41:32;99513.56;;;6.09;97.35
4834;BME280;12895;51.064;7.028;2023-12-22T04:44:18;99500.47;;;5.61;97.81
4834;BME280;12895;51.064;7.028;2023-12-22T04:47:03;99508.34;;;5.82;93.39
4834;BME280;12895;51.064;7.028;2023-12-22T04:49:49;99497.84;;;5.66;95.06
4834;BME280;12895;51.064;7.028;2023-12-22T04:52:35;99500.19;;;5.73;94.17
4834;BME280;12895;51.064;7.028;2023-12-22T04:55:21;99487.97;;;5.83;94.16
4834;BME280;12895;51.064;7.028;2023-12-22T04:58:06;99489.56;;;6.04;93.16
4834;BME280;12895;51.064;7.028;2023-12-22T05:00:51;99506.78;;;6.05;94.67
4834;BME280;12895;51.064;7.028;2023-12-22T05:03:36;99520.03;;;6.06;94.16
4834;BME280;12895;51.064;7.028;2023-12-22T05:06:21;99509.22;;;6.17;93.13
4834;BME280;12895;51.064;7.028;2023-12-22T05:09:08;99523.91;;;6.14;93.80
4834;BME280;12895;51.064;7.028;2023-12-22T05:11:53;99512.66;;;6.27;93.47
4834;BME280;12895;51.064;7.028;2023-12-22T05:14:39;99511.69;;;6.15;95.03
4834;BME280;12895;51.064;7.028;2023-12-22T05:17:24;99501.44;;;6.30;93.19
4834;BME280;12895;51.064;7.028;2023-12-22T05:20:10;99503.16;;;6.42;92.00
4834;BME280;12895;51.064;7.028;2023-12-22T05:22:55;99500.69;;;6.44;92.27
4834;BME280;12895;51.064;7.028;2023-12-22T05:25:42;99506.91;;;6.59;91.36
4834;BME280;12895;51.064;7.028;2023-12-22T05:28:27;99501.75;;;6.81;88.80
4834;BME280;12895;51.064;7.028;2023-12-22T05:31:12;99516.72;;;6.80;89.58
4834;BME280;12895;51.064;7.028;2023-12-22T05:33:57;99523.22;;;6.83;89.76
4834;BME280;12895;51.064;7.028;2023-12-22T05:36:43;99520.78;;;6.85;90.51
4834;BME280;12895;51.064;7.028;2023-12-22T05:39:28;99533.88;;;6.95;88.79
4834;BME280;12895;51.064;7.028;2023-12-22T05:42:15;99536.13;;;7.11;87.63
4834;BME280;12895;51.064;7.028;2023-12-22T05:45:01;99547.53;;;7.24;85.18
4834;BME280;12895;51.064;7.028;2023-12-22T05:47:46;99546.84;;;7.29;84.53
4834;BME280;12895;51.064;7.028;2023-12-22T05:50:31;99546.41;;;7.36;83.45
4834;BME280;12895;51.064;7.028;2023-12-22T05:53:17;99533.38;;;7.31;83.82
4834;BME280;12895;51.064;7.028;2023-12-22T05:56:02;99542.03;;;7.44;83.06
4834;BME280;12895;51.064;7.028;2023-12-22T05:58:49;99542.59;;;7.48;82.35
4834;BME280;12895;51.064;7.028;2023-12-22T06:01:34;99534.06;;;7.46;81.98
4834;BME280;12895;51.064;7.028;2023-12-22T06:04:20;99531.88;;;7.50;82.48
4834;BME280;12895;51.064;7.028;2023-12-22T06:07:05;99544.09;;;7.49;81.54
4834;BME280;12895;51.064;7.028;2023-12-22T06:09:51;99555.91;;;7.55;81.03
4834;BME280;12895;51.064;7.028;2023-12-22T06:12:36;99552.75;;;7.62;81.32
4834;BME280;12895;51.064;7.028;2023-12-22T06:15:23;99568.84;;;7.69;80.09
4834;BME280;12895;51.064;7.028;2023-12-22T06:18:08;99568.34;;;7.71;80.66
4834;BME280;12895;51.064;7.028;2023-12-22T06:20:53;99561.84;;;7.68;80.54
4834;BME280;12895;51.064;7.028;2023-12-22T06:23:39;99562.78;;;7.65;80.76
4834;BME280;12895;51.064;7.028;2023-12-22T06:26:24;99566.09;;;7.49;82.54
4834;BME280;12895;51.064;7.028;2023-12-22T06:29:09;99558.66;;;7.55;81.36
4834;BME280;12895;51.064;7.028;2023-12-22T06:31:56;99579.41;;;7.56;81.75
4834;BME280;12895;51.064;7.028;2023-12-22T06:34:41;99576.91;;;7.53;82.08
4834;BME280;12895;51.064;7.028;2023-12-22T06:37:26;99580.13;;;7.51;82.49
4834;BME280;12895;51.064;7.028;2023-12-22T06:40:12;99578.03;;;7.66;81.67
4834;BME280;12895;51.064;7.028;2023-12-22T06:42:57;99571.03;;;7.65;81.50
4834;BME280;12895;51.064;7.028;2023-12-22T06:45:42;99577.22;;;7.60;82.80
4834;BME280;12895;51.064;7.028;2023-12-22T06:48:29;99575.50;;;7.63;82.50
4834;BME280;12895;51.064;7.028;2023-12-22T06:51:18;99579.28;;;7.65;82.90
4834;BME280;12895;51.064;7.028;2023-12-22T06:54:04;99584.38;;;7.72;81.34
4834;BME280;12895;51.064;7.028;2023-12-22T06:56:49;99580.38;;;7.73;82.62
4834;BME280;12895;51.064;7.028;2023-12-22T06:59:34;99569.16;;;7.77;82.25
4834;BME280;12895;51.064;7.028;2023-12-22T07:02:20;99582.44;;;7.78;81.52
4834;BME280;12895;51.064;7.028;2023-12-22T07:08:10;99601.00;;;7.83;82.35
4834;BME280;12895;51.064;7.028;2023-12-22T07:10:55;99589.56;;;7.90;79.02
4834;BME280;12895;51.064;7.028;2023-12-22T07:13:40;99603.47;;;7.81;82.35
4834;BME280;12895;51.064;7.028;2023-12-22T07:16:25;99604.78;;;7.46;86.84
4834;BME280;12895;51.064;7.028;2023-12-22T07:19:11;99586.66;;;7.34;85.55
4834;BME280;12895;51.064;7.028;2023-12-22T07:21:57;99571.16;;;7.16;87.51
4834;BME280;12895;51.064;7.028;2023-12-22T07:24:44;99567.59;;;7.10;87.67
4834;BME280;12895;51.064;7.028;2023-12-22T07:27:30;99585.84;;;7.13;87.51
4834;BME280;12895;51.064;7.028;2023-12-22T07:30:15;99588.47;;;7.22;86.62
4834;BME280;12895;51.064;7.028;2023-12-22T07:33:01;99577.34;;;7.31;86.72
4834;BME280;12895;51.064;7.028;2023-12-22T07:35:46;99585.66;;;7.37;86.60
4834;BME280;12895;51.064;7.028;2023-12-22T07:38:31;99588.06;;;7.29;88.24
4834;BME280;12895;51.064;7.028;2023-12-22T07:41:18;99601.63;;;7.18;89.21
4834;BME280;12895;51.064;7.028;2023-12-22T07:44:03;99602.28;;;6.93;92.90
4834;BME280;12895;51.064;7.028;2023-12-22T07:46:55;99572.03;;;6.73;94.69
4834;BME280;12895;51.064;7.028;2023-12-22T07:49:40;99578.84;;;6.63;95.79
4834;BME280;12895;51.064;7.028;2023-12-22T07:52:25;99585.28;;;6.60;96.52
4834;BME280;12895;51.064;7.028;2023-12-22T07:55:10;99599.00;;;6.60;96.79
4834;BME280;12895;51.064;7.028;2023-12-22T07:57:57;99593.81;;;6.62;97.39
4834;BME280;12895;51.064;7.028;2023-12-22T08:00:43;99585.84;;;6.64;96.68
4834;BME280;12895;51.064;7.028;2023-12-22T08:03:30;99593.81;;;6.62;97.77
4834;BME280;12895;51.064;7.028;2023-12-22T08:06:15;99583.97;;;6.70;97.40
4834;BME280;12895;51.064;7.028;2023-12-22T08:09:00;99578.16;;;6.68;99.58
4834;BME280;12895;51.064;7.028;2023-12-22T08:11:46;99576.75;;;6.73;98.57
4834;BME280;12895;51.064;7.028;2023-12-22T08:14:32;99577.13;;;6.80;97.93
4834;BME280;12895;51.064;7.028;2023-12-22T08:17:18;99586.47;;;6.88;97.67
4834;BME280;12895;51.064;7.028;2023-12-22T08:20:03;99573.84;;;6.96;97.54
4834;BME280;12895;51.064;7.028;2023-12-22T08:22:49;99592.00;;;7.08;98.01
4834;BME280;12895;51.064;7.028;2023-12-22T08:25:35;99593.81;;;7.11;96.58
4834;BME280;12895;51.064;7.028;2023-12-22T08:28:20;99593.41;;;7.18;97.66
4834;BME280;12895;51.064;7.028;2023-12-22T08:31:06;99599.34;;;7.31;97.13
4834;BME280;12895;51.064;7.028;2023-12-22T08:33:52;99590.69;;;7.38;95.58
4834;BME280;12895;51.064;7.028;2023-12-22T08:36:37;99608.69;;;7.39;95.52
4834;BME280;12895;51.064;7.028;2023-12-22T08:39:22;99585.03;;;7.27;98.00
4834;BME280;12895;51.064;7.028;2023-12-22T08:42:08;99588.50;;;7.42;97.76
4834;BME280;12895;51.064;7.028;2023-12-22T08:44:53;99595.31;;;7.47;97.34
4834;BME280;12895;51.064;7.028;2023-12-22T08:47:39;99588.09;;;7.49;97.58
4834;BME280;12895;51.064;7.028;2023-12-22T08:50:25;99589.19;;;7.57;96.87
4834;BME280;12895;51.064;7.028;2023-12-22T08:53:10;99578.66;;;7.76;95.28
4834;BME280;12895;51.064;7.028;2023-12-22T08:55:56;99580.94;;;7.77;94.95
4834;BME280;12895;51.064;7.028;2023-12-22T08:58:41;99577.22;;;7.80;95.47
4834;BME280;12895;51.064;7.028;2023-12-22T09:01:26;99571.00;;;7.85;95.07
4834;BME280;12895;51.064;7.028;2023-12-22T09:04:13;99575.13;;;7.95;93.65
4834;BME280;12895;51.064;7.028;2023-12-22T09:07:00;99579.16;;;7.99;94.20
4834;BME280;12895;51.064;7.028;2023-12-22T09:09:45;99565.75;;;8.07;91.81
4834;BME280;12895;51.064;7.028;2023-12-22T09:12:30;99567.78;;;8.12;92.03
4834;BME280;12895;51.064;7.028;2023-12-22T09:15:16;99562.28;;;8.12;92.34
4834;BME280;12895;51.064;7.028;2023-12-22T09:18:01;99555.41;;;8.22;92.25
4834;BME280;12895;51.064;7.028;2023-12-22T09:20:48;99558.81;;;8.37;90.11
4834;BME280;12895;51.064;7.028;2023-12-22T09:23:33;99563.41;;;8.20;92.05
4834;BME280;12895;51.064;7.028;2023-12-22T09:26:19;99546.47;;;8.27;92.30
4834;BME280;12895;51.064;7.028;2023-12-22T09:29:04;99553.56;;;8.13;93.78
4834;BME280;12895;51.064;7.028;2023-12-22T09:31:50;99547.41;;;8.24;92.03
4834;BME280;12895;51.064;7.028;2023-12-22T09:34:35;99537.94;;;8.25;91.45
4834;BME280;12895;51.064;7.028;2023-12-22T09:37:21;99553.34;;;8.17;92.20
4834;BME280;12895;51.064;7.028;2023-12-22T09:40:08;99542.75;;;8.10;93.16
4834;BME280;12895;51.064;7.028;2023-12-22T09:42:54;99548.72;;;8.28;92.44
4834;BME280;12895;51.064;7.028;2023-12-22T09:45:40;99525.03;;;8.42;91.22
4834;BME280;12895;51.064;7.028;2023-12-22T09:48:26;99541.56;;;8.42;90.78
4834;BME280;12895;51.064;7.028;2023-12-22T09:51:12;99528.47;;;8.31;91.75
4834;BME280;12895;51.064;7.028;2023-12-22T09:54:02;99515.53;;;8.43;91.22
4834;BME280;12895;51.064;7.028;2023-12-22T09:56:48;99510.31;;;8.45;90.74
4834;BME280;12895;51.064;7.028;2023-12-22T09:59:35;99503.03;;;8.42;90.78
4834;BME280;12895;51.064;7.028;2023-12-22T10:02:20;99495.06;;;8.44;90.80
4834;BME280;12895;51.064;7.028;2023-12-22T10:05:06;99500.66;;;8.60;90.18
4834;BME280;12895;51.064;7.028;2023-12-22T10:07:51;99509.69;;;8.61;90.09
4834;BME280;12895;51.064;7.028;2023-12-22T10:10:39;99534.63;;;8.52;90.98
4834;BME280;12895;51.064;7.028;2023-12-22T10:13:25;99507.00;;;8.72;89.66
4834;BME280;12895;51.064;7.028;2023-12-22T10:16:12;99522.56;;;8.75;89.91
4834;BME280;12895;51.064;7.028;2023-12-22T10:18:57;99512.03;;;8.73;90.37
4834;BME280;12895;51.064;7.028;2023-12-22T10:21:43;99502.00;;;8.70;91.06
4834;BME280;12895;51.064;7.028;2023-12-22T10:24:38;99495.47;;;8.68;90.88
4834;BME280;12895;51.064;7.028;2023-12-22T10:27:27;99486.72;;;8.69;90.84
4834;BME280;12895;51.064;7.028;2023-12-22T10:30:15;99488.25;;;8.76;90.11
4834;BME280;12895;51.064;7.028;2023-12-22T10:33:03;99473.75;;;8.81;89.72
4834;BME280;12895;51.064;7.028;2023-12-22T10:35:49;99493.31;;;8.83;90.33
4834;BME280;12895;51.064;7.028;2023-12-22T10:38:36;99481.75;;;8.79;90.83
4834;BME280;12895;51.064;7.028;2023-12-22T10:41:22;99490.81;;;8.85;90.74
4834;BME280;12895;51.064;7.028;2023-12-22T10:44:09;99474.78;;;8.89;90.65
4834;BME280;12895;51.064;7.028;2023-12-22T10:46:54;99479.78;;;8.85;91.72
4834;BME280;12895;51.064;7.028;2023-12-22T10:49:39;99476.78;;;8.83;93.09
4834;BME280;12895;51.064;7.028;2023-12-22T10:52:25;99465.03;;;8.88;92.66
4834;BME280;12895;51.064;7.028;2023-12-22T10:55:11;99476.25;;;8.79;94.26
4834;BME280;12895;51.064;7.028;2023-12-22T10:57:56;99478.53;;;8.86;93.28
4834;BME280;12895;51.064;7.028;2023-12-22T11:00:48;99467.53;;;8.91;94.03
4834;BME280;12895;51.064;7.028;2023-12-22T11:03:35;99462.03;;;8.91;93.58
4834;BME280;12895;51.064;7.028;2023-12-22T11:06:23;99467.38;;;9.06;92.39
4834;BME280;12895;51.064;7.028;2023-12-22T11:09:10;99451.75;;;8.92;93.41
4834;BME280;12895;51.064;7.028;2023-12-22T11:11:56;99464.06;;;8.96;93.77
4834;BME280;12895;51.064;7.028;2023-12-22T11:14:42;99470.16;;;9.11;92.80
4834;BME280;12895;51.064;7.028;2023-12-22T11:17:28;99464.13;;;9.07;93.36
4834;BME280;12895;51.064;7.028;2023-12-22T11:20:16;99469.56;;;8.96;94.60
4834;BME280;12895;51.064;7.028;2023-12-22T11:23:01;99474.84;;;9.00;95.85
4834;BME280;12895;51.064;7.028;2023-12-22T11:25:47;99469.28;;;8.89;97.59
4834;BME280;12895;51.064;7.028;2023-12-22T11:28:34;99474.78;;;8.89;98.04
4834;BME280;12895;51.064;7.028;2023-12-22T11:31:20;99474.06;;;8.88;97.83
4834;BME280;12895;51.064;7.028;2023-12-22T11:34:06;99458.53;;;8.96;97.37
4834;BME280;12895;51.064;7.028;2023-12-22T11:36:52;99468.38;;;9.03;95.82
4834;BME280;12895;51.064;7.028;2023-12-22T11:39:38;99464.38;;;9.04;97.05
4834;BME280;12895;51.064;7.028;2023-12-22T11:42:25;99482.41;;;9.05;96.15
4834;BME280;12895;51.064;7.028;2023-12-22T11:45:12;99466.13;;;9.12;96.19
4834;BME280;12895;51.064;7.028;2023-12-22T11:48:04;99450.09;;;9.11;96.25
4834;BME280;12895;51.064;7.028;2023-12-22T11:50:51;99458.44;;;9.22;95.17
4834;BME280;12895;51.064;7.028;2023-12-22T11:53:36;99463.94;;;9.22;94.87
4834;BME280;12895;51.064;7.028;2023-12-22T11:56:21;99474.69;;;9.20;95.11
4834;BME280;12895;51.064;7.028;2023-12-22T11:59:10;99448.59;;;9.15;96.65
4834;BME280;12895;51.064;7.028;2023-12-22T12:01:56;99448.31;;;9.08;97.79
4834;BME280;12895;51.064;7.028;2023-12-22T12:04:41;99454.38;;;9.12;97.27
4834;BME280;12895;51.064;7.028;2023-12-22T12:07:43;99439.34;;;9.13;97.58
4834;BME280;12895;51.064;7.028;2023-12-22T12:10:36;99446.88;;;9.18;97.66
4834;BME280;12895;51.064;7.028;2023-12-22T12:13:35;99444.66;;;9.27;96.08
4834;BME280;12895;51.064;7.028;2023-12-22T12:16:22;99450.41;;;9.24;96.42
4834;BME280;12895;51.064;7.028;2023-12-22T12:19:08;99428.88;;;9.39;94.91
4834;BME280;12895;51.064;7.028;2023-12-22T12:21:53;99427.88;;;9.31;95.83
4834;BME280;12895;51.064;7.028;2023-12-22T12:24:40;99426.66;;;9.37;94.36
4834;BME280;12895;51.064;7.028;2023-12-22T12:27:26;99427.16;;;9.41;94.08
4834;BME280;12895;51.064;7.028;2023-12-22T12:30:11;99424.41;;;9.47;93.71
4834;BME280;12895;51.064;7.028;2023-12-22T12:32:59;99429.91;;;9.47;93.50
4834;BME280;12895;51.064;7.028;2023-12-22T12:35:46;99437.47;;;9.63;92.34
4834;BME280;12895;51.064;7.028;2023-12-22T12:38:36;99448.03;;;9.70;90.44
4834;BME280;12895;51.064;7.028;2023-12-22T12:41:31;99432.97;;;9.71;90.88
4834;BME280;12895;51.064;7.028;2023-12-22T12:44:18;99427.97;;;9.75;90.42
4834;BME280;12895;51.064;7.028;2023-12-22T12:47:11;99423.44;;;9.72;90.90
4834;BME280;12895;51.064;7.028;2023-12-22T12:49:57;99414.41;;;9.77;90.83
4834;BME280;12895;51.064;7.028;2023-12-22T12:52:42;99419.44;;;9.84;89.75
4834;BME280;12895;51.064;7.028;2023-12-22T12:55:28;99423.94;;;9.87;89.54
4834;BME280;12895;51.064;7.028;2023-12-22T12:58:14;99411.16;;;9.89;89.11
4834;BME280;12895;51.064;7.028;2023-12-22T13:01:04;99414.94;;;9.92;87.85
4834;BME280;12895;51.064;7.028;2023-12-22T13:03:53;99409.16;;;9.90;88.27
4834;BME280;12895;51.064;7.028;2023-12-22T13:06:42;99420.22;;;9.90;88.47
4834;BME280;12895;51.064;7.028;2023-12-22T13:09:31;99406.41;;;9.90;87.38
4834;BME280;12895;51.064;7.028;2023-12-22T13:12:17;99415.19;;;9.83;89.00
4834;BME280;12895;51.064;7.028;2023-12-22T13:15:03;99396.88;;;9.80;89.81
4834;BME280;12895;51.064;7.028;2023-12-22T13:17:49;99405.41;;;9.71;91.06
4834;BME280;12895;51.064;7.028;2023-12-22T13:20:34;99394.59;;;9.62;93.29
4834;BME280;12895;51.064;7.028;2023-12-22T13:23:23;99404.84;;;9.45;95.49
4834;BME280;12895;51.064;7.028;2023-12-22T13:26:17;99410.59;;;9.41;96.07
4834;BME280;12895;51.064;7.028;2023-12-22T13:29:02;99412.34;;;9.50;94.79
4834;BME280;12895;51.064;7.028;2023-12-22T13:31:48;99414.59;;;9.40;96.34
4834;BME280;12895;51.064;7.028;2023-12-22T13:34:34;99400.31;;;9.31;96.11
4834;BME280;12895;51.064;7.028;2023-12-22T13:37:19;99414.03;;;9.14;99.60
4834;BME280;12895;51.064;7.028;2023-12-22T13:40:07;99415.72;;;9.01;99.50
4834;BME280;12895;51.064;7.028;2023-12-22T13:42:53;99409.00;;;9.02;99.32
4834;BME280;12895;51.064;7.028;2023-12-22T13:45:39;99422.47;;;8.94;100.00
4834;BME280;12895;51.064;7.028;2023-12-22T13:48:26;99431.28;;;9.04;99.46
4834;BME280;12895;51.064;7.028;2023-12-22T13:51:11;99430.56;;;9.14;98.86
4834;BME280;12895;51.064;7.028;2023-12-22T13:53:57;99456.44;;;9.28;97.42
4834;BME280;12895;51.064;7.028;2023-12-22T13:56:43;99425.88;;;9.37;96.39
4834;BME280;12895;51.064;7.028;2023-12-22T13:59:30;99442.41;;;9.37;97.58
4834;BME280;12895;51.064;7.028;2023-12-22T14:02:21;99456.47;;;9.39;97.38
4834;BME280;12895;51.064;7.028;2023-12-22T14:05:08;99458.50;;;9.44;97.00
4834;BME280;12895;51.064;7.028;2023-12-22T14:07:54;99463.25;;;9.43;96.85
4834;BME280;12895;51.064;7.028;2023-12-22T14:10:44;99450.47;;;9.46;96.25
4834;BME280;12895;51.064;7.028;2023-12-22T14:13:29;99444.25;;;9.62;93.73
4834;BME280;12895;51.064;7.028;2023-12-22T14:16:15;99451.25;;;9.52;94.80
4834;BME280;12895;51.064;7.028;2023-12-22T14:19:01;99468.03;;;9.43;96.01
4834;BME280;12895;51.064;7.028;2023-12-22T14:21:47;99473.00;;;9.39;96.42
4834;BME280;12895;51.064;7.028;2023-12-22T14:24:34;99461.16;;;9.16;99.06
4834;BME280;12895;51.064;7.028;2023-12-22T14:27:19;99464.88;;;9.08;100.00
4834;BME280;12895;51.064;7.028;2023-12-22T14:30:05;99484.38;;;8.99;100.00
4834;BME280;12895;51.064;7.028;2023-12-22T14:32:50;99472.88;;;9.06;100.00
4834;BME280;12895;51.064;7.028;2023-12-22T14:35:35;99478.41;;;9.06;100.00
4834;BME280;12895;51.064;7.028;2023-12-22T14:38:22;99509.97;;;9.05;100.00
4834;BME280;12895;51.064;7.028;2023-12-22T14:41:07;99472.13;;;9.05;100.00
4834;BME280;12895;51.064;7.028;2023-12-22T14:43:52;99483.91;;;9.06;100.00
4834;BME280;12895;51.064;7.028;2023-12-22T14:46:38;99480.41;;;9.11;99.95
4834;BME280;12895;51.064;7.028;2023-12-22T14:49:24;99501.19;;;9.06;100.00
4834;BME280;12895;51.064;7.028;2023-12-22T14:52:09;99506.75;;;9.12;98.92
4834;BME280;12895;51.064;7.028;2023-12-22T14:54:56;99506.22;;;9.08;99.67
4834;BME280;12895;51.064;7.028;2023-12-22T14:57:42;99499.69;;;9.05;100.00
4834;BME280;12895;51.064;7.028;2023-12-22T15:00:27;99520.00;;;9.08;100.00
4834;BME280;12895;51.064;7.028;2023-12-22T15:03:12;99510.25;;;9.12;100.00
4834;BME280;12895;51.064;7.028;2023-12-22T15:05:58;99509.03;;;9.19;99.07